Ball Ground, Georgia
Current Conditions -  °F | °C
As of 1:35 PM on Friday 31 Oct 2014 (Local Time) from KCNI Reporting Station
Overcast Overcast  
Wind Chill: 54°   Ceiling: 8000
Heat Index: 54°   Visibility: 10mi
Dew Point: 37°   Wind: 6mph
Humidity: 54%   Direction: 290°WNW
Pressure: 29.92"   Gusts: NA
Location:  34.34°N, 84.38°W
Report Text: KCNI 311735Z AUTO 29005KT 10SM OVC080 12/03 A2992 RMK AO2
Loading
Personal Weather Stations






























Interactive Weather Map
Tropical Storm Tracking
New forecast layout! Learn more

10-Day Weather Forecast

Advertisements
Track Severe Weather on mobile